Terminal Aerodrome Forecast
Issued by NWS Hastings, NE

Home | Current Version | Previous Version | Text Only | Print | Product List | Glossary On
Versions: 1 2 3 4 5 6 7 8 9 10 11 12 13 14 15 16 17 18 19 20 21 22 23 24 25 26 27 28
484
FTUS43 KGID 131732
TAFGRI
TAF
KGRI 131732Z 1318/1418 33028G38KT P6SM SKC
     FM132300 34018G28KT P6SM SCT250
     FM140100 34012KT P6SM SCT100 BKN250
     FM140500 34008KT P6SM SCT025 BKN100
     FM141500 31010KT P6SM OVC025=

USA.gov is the U.S. government's official web portal to all federal, state and local government web resources and services.